Time;durP1;ratioP1;P1;durP2;ratioP2;P2;SDS_P1;SDS_P2;PMS_P1;PMS_P2;Temp;Humidity;BMP_temperature;BMP_pressure;BME280_temperature;BME280_humidity;BME280_pressure;Samples;Min_cycle;Max_cycle;Signal;HPM_P1;HPM_P2
2022/09/13 00:00:40;;;;;;;3.57;3.27;;;14.80;99.90;;;-142.72;100.00;65101.41;4932744;29;20437;-73
2022/09/13 00:03:11;;;;;;;4.97;3.50;;;14.70;99.90;;;-142.72;100.00;65101.41;4929513;29;20441;-73
2022/09/13 00:05:41;;;;;;;3.20;2.90;;;14.70;99.90;;;-142.72;100.00;65101.41;4929530;29;20934;-71
2022/09/13 00:08:10;;;;;;;5.57;4.20;;;14.70;99.90;;;-142.72;100.00;65101.41;4932136;29;20448;-72
2022/09/13 00:10:43;;;;;;;4.63;3.30;;;14.60;99.90;;;-142.72;100.00;65101.41;4933161;29;20423;-72
2022/09/13 00:13:15;;;;;;;5.37;3.30;;;14.70;99.90;;;-142.72;100.00;65101.41;4931272;29;20415;-71
2022/09/13 00:15:46;;;;;;;3.77;3.37;;;14.60;99.90;;;-142.72;100.00;65101.41;4932294;29;20461;-72
2022/09/13 00:18:18;;;;;;;2.90;2.60;;;14.60;99.90;;;-142.72;100.00;65101.41;4935351;29;20455;-72
2022/09/13 00:20:47;;;;;;;3.80;3.37;;;14.60;99.90;;;-142.72;100.00;65101.41;4934173;29;20444;-72
2022/09/13 00:23:16;;;;;;;3.83;3.53;;;14.60;99.90;;;-142.72;100.00;65101.41;4935770;29;20443;-72
2022/09/13 00:25:45;;;;;;;3.60;3.13;;;14.50;99.90;;;-142.72;100.00;65101.41;4934418;29;20966;-71
2022/09/13 00:28:14;;;;;;;4.40;4.00;;;14.60;99.90;;;-142.72;100.00;65101.41;4933806;29;20547;-73
2022/09/13 00:30:43;;;;;;;4.17;3.07;;;14.60;99.90;;;-142.72;100.00;65101.41;4937146;28;20415;-73
2022/09/13 00:33:12;;;;;;;3.33;3.03;;;14.60;99.90;;;-142.72;100.00;65101.41;4938114;29;20492;-72
2022/09/13 00:35:42;;;;;;;3.97;3.43;;;14.60;99.90;;;-142.72;100.00;65101.41;4933583;29;20460;-72
2022/09/13 00:38:11;;;;;;;4.23;3.40;;;14.50;99.90;;;-142.72;100.00;65101.41;4934963;29;20500;-72
2022/09/13 00:40:40;;;;;;;5.17;4.17;;;14.50;99.90;;;-142.72;100.00;65101.41;4937465;28;20441;-73
2022/09/13 00:43:17;;;;;;;3.80;3.50;;;14.50;99.90;;;-142.72;100.00;65101.41;4937822;29;20483;-71
2022/09/13 00:45:48;;;;;;;6.23;4.23;;;14.50;99.90;;;-142.72;100.00;65101.41;4940033;28;20510;-72
2022/09/13 00:48:23;;;;;;;9.00;3.77;;;14.40;99.90;;;-142.72;100.00;65101.41;4938362;29;20480;-71
2022/09/13 00:50:56;;;;;;;3.27;2.97;;;14.40;99.90;;;-142.72;100.00;65101.41;4936870;29;20494;-71
2022/09/13 00:53:31;;;;;;;5.00;3.30;;;14.30;99.90;;;-142.72;100.00;65101.41;4935923;29;20880;-72
2022/09/13 00:56:08;;;;;;;4.77;3.77;;;14.30;99.90;;;-142.72;100.00;65101.41;4934959;29;20476;-72
2022/09/13 00:58:44;;;;;;;4.13;3.83;;;14.30;99.90;;;-142.72;100.00;65101.41;4947445;29;20579;-73
2022/09/13 01:01:16;;;;;;;4.17;3.77;;;14.30;99.90;;;-142.72;100.00;65101.41;4939389;28;20442;-72
2022/09/13 01:03:48;;;;;;;4.13;3.43;;;14.30;99.90;;;-142.72;100.00;65101.41;4936960;28;20845;-73
2022/09/13 01:06:25;;;;;;;4.80;4.40;;;14.30;99.90;;;-142.72;100.00;65101.41;4938619;28;20516;-73
2022/09/13 01:08:57;;;;;;;4.03;3.67;;;14.30;99.90;;;-142.72;100.00;65101.41;4934682;28;20822;-72
2022/09/13 01:11:33;;;;;;;4.33;3.37;;;14.20;99.90;;;-142.72;100.00;65101.41;4934890;29;20507;-71
2022/09/13 01:14:05;;;;;;;5.27;3.83;;;14.20;99.90;;;-142.72;100.00;65101.41;4940873;29;20982;-72
2022/09/13 01:16:34;;;;;;;3.13;2.87;;;14.20;99.90;;;-142.72;100.00;65101.41;4938262;29;20420;-72
2022/09/13 01:19:04;;;;;;;4.93;4.23;;;14.10;99.90;;;-142.72;100.00;65101.41;4939399;29;20514;-71
2022/09/13 01:22:12;;;;;;;3.50;3.20;;;14.00;99.90;;;-142.72;100.00;65101.41;4937211;29;20419;-71
2022/09/13 01:25:24;;;;;;;3.73;3.27;;;14.00;99.90;;;-142.72;100.00;65101.41;4932693;29;20475;-72
2022/09/13 01:28:40;;;;;;;4.30;3.90;;;14.10;99.90;;;-142.72;100.00;65101.41;4936753;29;20970;-72
2022/09/13 01:31:20;;;;;;;5.00;3.70;;;14.10;99.90;;;-142.72;100.00;65101.41;4928674;29;20576;-71
2022/09/13 01:34:07;;;;;;;6.50;3.63;;;14.10;99.90;;;-142.72;100.00;65101.41;4932625;29;20475;-71
2022/09/13 01:37:03;;;;;;;3.73;3.43;;;14.00;99.90;;;-142.72;100.00;65101.41;4927924;29;20447;-71
2022/09/13 01:39:57;;;;;;;3.33;3.03;;;14.00;99.90;;;-142.72;100.00;65101.41;4936890;29;20511;-70
2022/09/13 01:42:47;;;;;;;3.20;2.90;;;13.90;99.90;;;-142.72;100.00;65101.41;4932920;29;20915;-72
2022/09/13 01:45:31;;;;;;;4.35;3.95;;;14.00;99.90;;;-142.72;100.00;65101.41;4947413;23;20482;-73
2022/09/13 01:48:11;;;;;;;4.10;3.47;;;14.00;99.90;;;-142.72;100.00;65101.41;4913712;29;20500;-72
2022/09/13 01:50:47;;;;;;;4.13;3.83;;;14.00;99.90;;;-142.72;100.00;65101.41;4912991;29;20811;-71
2022/09/13 01:53:32;;;;;;;4.80;3.80;;;14.00;99.90;;;-142.72;100.00;65101.41;4915855;29;20444;-72
2022/09/13 01:56:10;;;;;;;4.57;3.80;;;14.10;99.90;;;-142.72;100.00;65101.41;4897672;29;20832;-72
2022/09/13 01:58:46;;;;;;;4.43;3.87;;;14.10;99.90;;;-142.72;100.00;65101.41;4896533;29;20484;-72
2022/09/13 02:01:21;;;;;;;3.63;3.30;;;14.00;99.90;;;-142.72;100.00;65101.41;4894158;29;20442;-72
2022/09/13 02:04:01;;;;;;;5.10;3.67;;;14.00;99.90;;;-142.72;100.00;65101.41;4904389;29;20472;-72
2022/09/13 02:06:37;;;;;;;4.67;3.93;;;13.90;99.90;;;-142.72;100.00;65101.41;4898653;29;20832;-72
2022/09/13 02:09:16;;;;;;;4.43;4.03;;;13.90;99.90;;;-142.72;100.00;65101.41;4882402;29;20780;-72
2022/09/13 02:11:56;;;;;;;7.53;4.50;;;13.90;99.90;;;-142.72;100.00;65101.41;4895803;29;20453;-71
2022/09/13 02:14:32;;;;;;;6.60;3.70;;;13.90;99.90;;;-142.72;100.00;65101.41;4903083;29;20485;-72
2022/09/13 02:17:07;;;;;;;4.80;3.80;;;13.90;99.90;;;-142.72;100.00;65101.41;4890760;29;20464;-72
2022/09/13 02:19:45;;;;;;;3.93;3.60;;;14.00;99.90;;;-142.72;100.00;65101.41;4899993;29;20844;-72
2022/09/13 02:22:21;;;;;;;4.57;4.17;;;13.90;99.90;;;-142.72;100.00;65101.41;4898684;29;20732;-72
2022/09/13 02:25:01;;;;;;;4.53;3.83;;;14.00;99.90;;;-142.72;100.00;65101.41;4898047;29;20564;-72
2022/09/13 02:27:37;;;;;;;4.33;3.93;;;14.00;99.90;;;-142.72;100.00;65101.41;4897509;29;20804;-72
2022/09/13 02:30:10;;;;;;;3.83;3.53;;;14.00;99.90;;;-142.72;100.00;65101.41;4896053;29;20401;-71
2022/09/13 02:32:45;;;;;;;4.90;3.97;;;13.90;99.90;;;-142.72;100.00;65101.41;4893825;29;20500;-72
2022/09/13 02:35:24;;;;;;;5.90;5.30;;;13.90;99.90;;;-142.72;100.00;65101.41;4895706;29;20575;-71
2022/09/13 02:38:01;;;;;;;6.27;3.77;;;13.90;99.90;;;-142.72;100.00;65101.41;4894208;29;20445;-72
2022/09/13 02:40:39;;;;;;;4.33;3.93;;;13.90;99.90;;;-142.72;100.00;65101.41;4879521;29;20518;-72
2022/09/13 02:43:15;;;;;;;4.00;3.70;;;13.90;99.90;;;-142.72;100.00;65101.41;4893449;29;20446;-73
2022/09/13 02:45:57;;;;;;;4.60;4.00;;;13.80;99.90;;;-142.72;100.00;65101.41;4895188;29;20972;-70
2022/09/13 02:48:38;;;;;;;4.20;3.60;;;13.80;99.90;;;-142.72;100.00;65101.41;4894080;29;20559;-72
2022/09/13 02:51:21;;;;;;;3.80;3.20;;;13.90;99.90;;;-142.72;100.00;65101.41;4888694;29;20502;-72
2022/09/13 02:54:06;;;;;;;4.63;3.87;;;14.00;99.90;;;-142.72;100.00;65101.41;4894275;29;21035;-72
2022/09/13 02:56:51;;;;;;;4.20;3.33;;;14.00;99.90;;;-142.72;100.00;65101.41;4897717;29;20420;-72
2022/09/13 02:59:23;;;;;;;4.07;3.67;;;14.10;99.90;;;-142.72;100.00;65101.41;4910110;29;20540;-72
2022/09/13 03:02:00;;;;;;;4.30;3.63;;;14.10;99.90;;;-142.72;100.00;65101.41;4895065;29;20443;-72
2022/09/13 03:04:34;;;;;;;4.70;4.30;;;14.10;99.90;;;-142.72;100.00;65101.41;4895094;29;20462;-71
2022/09/13 03:07:10;;;;;;;6.13;4.60;;;14.00;99.90;;;-142.72;100.00;65101.41;4900580;29;20508;-71
2022/09/13 03:09:48;;;;;;;4.97;4.47;;;14.10;99.90;;;-142.72;100.00;65101.41;4894551;29;21003;-72
2022/09/13 03:12:43;;;;;;;4.37;3.97;;;14.00;99.90;;;-142.72;100.00;65101.41;4894471;29;20858;-72
2022/09/13 03:15:29;;;;;;;4.43;4.03;;;14.00;99.90;;;-142.72;100.00;65101.41;4898087;29;20991;-72
2022/09/13 03:18:17;;;;;;;6.13;4.87;;;14.00;99.90;;;-142.72;100.00;65101.41;4893520;29;20429;-72
2022/09/13 03:21:02;;;;;;;3.97;3.63;;;14.10;99.90;;;-142.72;100.00;65101.41;4894500;29;20471;-72
2022/09/13 03:23:53;;;;;;;5.10;4.50;;;14.10;99.90;;;-142.72;100.00;65101.41;4891058;29;20441;-72
2022/09/13 03:26:39;;;;;;;4.80;4.20;;;14.00;99.90;;;-142.72;100.00;65101.41;4899617;29;20436;-72
2022/09/13 03:29:28;;;;;;;6.07;4.70;;;14.00;1.00;;;-142.72;100.00;65101.41;4894242;29;20438;-72
2022/09/13 03:32:13;;;;;;;4.63;4.23;;;13.90;99.90;;;-142.72;100.00;65101.41;4886669;29;20912;-72
2022/09/13 03:34:55;;;;;;;4.30;3.90;;;13.90;99.90;;;-142.72;100.00;65101.41;4894281;29;20478;-72
2022/09/13 03:37:35;;;;;;;5.00;4.60;;;13.80;99.90;;;-142.72;100.00;65101.41;4895618;29;20948;-72
2022/09/13 03:40:13;;;;;;;4.83;4.33;;;13.80;99.90;;;-142.72;100.00;65101.41;4890774;29;20494;-72
2022/09/13 03:42:50;;;;;;;5.30;4.80;;;13.80;99.90;;;-142.72;100.00;65101.41;4898425;29;20428;-72
2022/09/13 03:45:27;;;;;;;4.63;4.20;;;13.90;99.90;;;-142.72;100.00;65101.41;4893999;29;20460;-72
2022/09/13 03:47:57;;;;;;;5.50;5.00;;;14.00;99.90;;;-142.72;100.00;65101.41;4906753;29;20420;-71
2022/09/13 03:50:28;;;;;;;5.33;4.87;;;14.00;99.90;;;-142.72;100.00;65101.41;4900719;29;20849;-72
2022/09/13 03:53:03;;;;;;;5.03;4.53;;;14.00;99.90;;;-142.72;100.00;65101.41;4901737;29;21031;-72
2022/09/13 03:55:38;;;;;;;7.37;4.90;;;14.00;99.90;;;-142.72;100.00;65101.41;4885364;29;20454;-71
2022/09/13 03:58:09;;;;;;;4.70;4.30;;;14.00;99.90;;;-142.72;100.00;65101.41;4901562;29;20926;-72
2022/09/13 04:00:39;;;;;;;7.00;5.00;;;14.00;99.90;;;-142.72;100.00;65101.41;4904717;29;20972;-71
2022/09/13 04:03:09;;;;;;;5.50;5.07;;;14.20;99.90;;;-142.72;100.00;65101.41;4911110;29;20852;-71
2022/09/13 04:05:38;;;;;;;4.63;4.20;;;14.20;99.90;;;-142.72;100.00;65101.41;4895517;29;20436;-72
2022/09/13 04:08:08;;;;;;;5.13;4.63;;;14.20;99.90;;;-142.72;100.00;65101.41;4902758;29;20484;-72
2022/09/13 04:10:39;;;;;;;6.00;5.40;;;14.30;99.90;;;-142.72;100.00;65101.41;4903454;29;20425;-72
2022/09/13 04:13:09;;;;;;;5.97;4.67;;;14.30;99.90;;;-142.72;100.00;65101.41;4905367;29;20458;-72
2022/09/13 04:15:37;;;;;;;5.43;4.90;;;14.30;99.90;;;-142.72;100.00;65101.41;4896581;29;20881;-72
2022/09/13 04:18:07;;;;;;;5.93;5.40;;;14.40;99.90;;;-142.72;100.00;65101.41;4903838;29;20465;-72
2022/09/13 04:20:36;;;;;;;5.50;5.00;;;14.30;99.90;;;-142.72;100.00;65101.41;4900221;29;20533;-71
2022/09/13 04:23:06;;;;;;;5.60;5.00;;;14.30;99.90;;;-142.72;100.00;65101.41;4901393;29;20457;-71
2022/09/13 04:25:38;;;;;;;6.40;5.03;;;14.30;99.90;;;-142.72;100.00;65101.41;4897012;29;20565;-72
2022/09/13 04:28:08;;;;;;;7.60;7.00;;;14.30;99.90;;;-142.72;100.00;65101.41;4905063;29;20424;-71
2022/09/13 04:30:37;;;;;;;7.23;5.23;;;14.30;99.90;;;-142.72;100.00;65101.41;4897074;29;20429;-71
2022/09/13 04:33:10;;;;;;;7.30;6.67;;;14.30;99.90;;;-142.72;100.00;65101.41;4897989;29;20433;-72
2022/09/13 04:35:39;;;;;;;5.60;4.87;;;14.20;99.90;;;-142.72;100.00;65101.41;4897749;29;20529;-71
2022/09/13 04:38:09;;;;;;;8.13;6.00;;;14.20;99.90;;;-142.72;100.00;65101.41;4894457;29;20651;-72
2022/09/13 04:40:39;;;;;;;9.33;5.10;;;14.20;1.00;;;-142.72;100.00;65101.41;4895022;29;20470;-72
2022/09/13 04:43:10;;;;;;;4.80;4.40;;;14.30;99.90;;;-142.72;100.00;65101.41;4900402;29;20450;-72
2022/09/13 04:45:39;;;;;;;8.67;5.30;;;14.20;99.90;;;-142.72;100.00;65101.41;4895920;29;20468;-73
2022/09/13 04:48:08;;;;;;;6.10;5.50;;;14.30;99.90;;;-142.72;100.00;65101.41;4888156;29;20417;-72
2022/09/13 04:50:37;;;;;;;5.83;5.33;;;14.30;1.00;;;-142.72;100.00;65101.41;4896067;29;20879;-72
2022/09/13 04:53:06;;;;;;;6.23;4.93;;;14.20;99.90;;;-142.72;100.00;65101.41;4896116;29;20428;-71
2022/09/13 04:55:35;;;;;;;5.47;5.07;;;14.30;99.90;;;-142.72;100.00;65101.41;4895985;29;20477;-71
2022/09/13 04:58:04;;;;;;;6.00;5.47;;;14.40;99.90;;;-142.72;100.00;65101.41;4902841;29;20474;-71
2022/09/13 05:00:36;;;;;;;7.20;5.70;;;14.30;99.90;;;-142.72;100.00;65101.41;4899748;29;20444;-72
2022/09/13 05:03:05;;;;;;;8.07;6.70;;;14.30;99.90;;;-142.72;100.00;65101.41;4896881;29;20492;-71
2022/09/13 05:05:34;;;;;;;8.50;5.70;;;14.40;99.90;;;-142.72;100.00;65101.41;4893134;29;20448;-72
2022/09/13 05:08:03;;;;;;;6.47;4.80;;;14.40;99.90;;;-142.72;100.00;65101.41;4901478;29;20417;-72
2022/09/13 05:10:32;;;;;;;6.80;5.97;;;14.40;99.90;;;-142.72;100.00;65101.41;4905009;29;20467;-72
2022/09/13 05:13:01;;;;;;;6.07;5.57;;;14.40;99.90;;;-142.72;100.00;65101.41;4906767;29;20469;-72
2022/09/13 05:15:30;;;;;;;6.60;6.00;;;14.50;99.90;;;-142.72;100.00;65101.41;4900163;29;20453;-71
2022/09/13 05:18:00;;;;;;;8.00;6.40;;;14.50;99.90;;;-142.72;100.00;65101.41;4905770;29;20442;-72
2022/09/13 05:20:30;;;;;;;7.40;5.30;;;14.50;99.90;;;-142.72;100.00;65101.41;4908572;29;20457;-71
2022/09/13 05:22:59;;;;;;;6.00;5.50;;;14.50;99.90;;;-142.72;100.00;65101.41;4907229;29;20424;-72
2022/09/13 05:25:28;;;;;;;6.77;6.07;;;14.50;99.90;;;-142.72;100.00;65101.41;4894477;29;20843;-72
2022/09/13 05:27:57;;;;;;;6.20;5.60;;;14.60;99.90;;;-142.72;100.00;65101.41;4910184;29;20439;-72
2022/09/13 05:30:26;;;;;;;6.93;6.23;;;14.70;1.00;;;-142.72;100.00;65101.41;4903559;29;20438;-71
2022/09/13 05:32:56;;;;;;;6.17;5.57;;;14.70;1.00;;;-142.72;100.00;65101.41;4903745;29;20420;-72
2022/09/13 05:35:27;;;;;;;8.13;6.43;;;14.80;99.90;;;-142.72;100.00;65101.41;4905346;29;20469;-72
2022/09/13 05:37:56;;;;;;;10.00;7.87;;;14.70;99.90;;;-142.72;100.00;65101.41;4908384;29;20764;-72
2022/09/13 05:40:25;;;;;;;6.60;5.93;;;14.80;1.00;;;-142.72;100.00;65101.41;4899380;29;20448;-72
2022/09/13 05:42:54;;;;;;;7.30;6.40;;;14.80;1.00;;;-142.72;100.00;65101.41;4900542;29;20491;-72
2022/09/13 05:45:23;;;;;;;7.87;7.10;;;14.80;1.00;;;-142.72;100.00;65101.41;4900928;29;20546;-72
2022/09/13 05:47:52;;;;;;;10.57;8.23;;;14.80;1.00;;;-142.72;100.00;65101.41;4899639;29;20433;-71
2022/09/13 05:50:21;;;;;;;7.03;6.30;;;14.80;1.00;;;-142.72;100.00;65101.41;4900045;29;20421;-72
2022/09/13 05:53:12;;;;;;;7.63;6.93;;;14.80;1.00;;;-142.72;100.00;65101.41;4900607;29;20532;-71
2022/09/13 05:55:42;;;;;;;7.63;6.93;;;14.80;99.90;;;-142.72;100.00;65101.41;4900622;29;20485;-72
2022/09/13 05:58:11;;;;;;;7.87;7.07;;;14.70;1.00;;;-142.72;100.00;65101.41;4907276;29;20425;-72
2022/09/13 06:00:40;;;;;;;13.27;7.67;;;14.70;99.90;;;-142.72;100.00;65101.41;4903538;29;20441;-71
2022/09/13 06:03:09;;;;;;;10.97;7.70;;;14.70;1.00;;;-142.72;100.00;65101.41;4901305;29;20456;-71
2022/09/13 06:05:38;;;;;;;8.50;7.70;;;14.80;1.00;;;-142.72;100.00;65101.41;4901748;29;20523;-71
2022/09/13 06:08:07;;;;;;;9.00;7.57;;;14.80;1.00;;;-142.72;100.00;65101.41;4910052;29;20492;-71
2022/09/13 06:10:37;;;;;;;11.60;7.97;;;14.70;1.00;;;-142.72;100.00;65101.41;4896309;29;20398;-69
2022/09/13 06:13:06;;;;;;;8.97;8.07;;;14.70;1.00;;;-142.72;100.00;65101.41;4896886;29;20464;-71
2022/09/13 06:15:35;;;;;;;9.73;8.17;;;14.60;1.00;;;-142.72;100.00;65101.41;4904195;29;20819;-72
2022/09/13 06:18:10;;;;;;;9.90;8.60;;;14.60;99.90;;;-142.72;100.00;65101.41;4899368;29;20446;-71
2022/09/13 06:20:42;;;;;;;8.43;7.63;;;14.60;6.30;;;-142.72;100.00;65101.41;4899169;29;20445;-70
2022/09/13 06:23:12;;;;;;;8.60;7.70;;;14.50;99.90;;;-142.72;100.00;65101.41;4896195;29;20478;-69
2022/09/13 06:25:43;;;;;;;10.77;8.50;;;14.50;88.50;;;-142.72;100.00;65101.41;4895633;29;20466;-70
2022/09/13 06:28:13;;;;;;;9.47;7.97;;;14.50;99.90;;;-142.72;100.00;65101.41;4877320;29;20448;-70
2022/09/13 06:30:42;;;;;;;9.23;8.33;;;14.40;1.00;;;-142.72;100.00;65101.41;4895252;29;20470;-69
2022/09/13 06:33:11;;;;;;;11.80;9.80;;;14.30;99.90;;;-142.72;100.00;65101.41;4896391;29;20878;-70
2022/09/13 06:35:39;;;;;;;11.63;9.60;;;14.30;99.90;;;-142.72;100.00;65101.41;4895368;29;20543;-70
2022/09/13 06:38:08;;;;;;;8.97;8.00;;;14.30;99.90;;;-142.72;100.00;65101.41;4893435;29;20449;-69
2022/09/13 06:40:37;;;;;;;10.23;8.73;;;14.30;99.90;;;-142.72;100.00;65101.41;4894723;29;21003;-70
2022/09/13 06:43:08;;;;;;;14.43;8.60;;;14.30;99.90;;;-142.72;100.00;65101.41;4899631;29;20465;-69
2022/09/13 06:45:37;;;;;;;10.63;8.77;;;14.30;99.90;;;-142.72;100.00;65101.41;4901818;29;20452;-71
2022/09/13 06:48:06;;;;;;;10.80;9.40;;;14.30;99.90;;;-142.72;100.00;65101.41;4900313;29;20462;-71
2022/09/13 06:50:35;;;;;;;12.53;9.63;;;14.30;99.90;;;-142.72;100.00;65101.41;4901034;29;20447;-71
2022/09/13 06:53:04;;;;;;;10.67;9.53;;;14.30;99.90;;;-142.72;100.00;65101.41;4894614;29;20818;-71
2022/09/13 06:55:33;;;;;;;9.70;8.73;;;14.40;99.90;;;-142.72;100.00;65101.41;4899348;29;21014;-71
2022/09/13 06:58:02;;;;;;;13.57;10.20;;;14.80;99.90;;;-142.72;100.00;65101.41;4899575;29;20476;-70
2022/09/13 07:00:32;;;;;;;10.87;9.07;;;14.90;99.90;;;-142.72;100.00;65101.41;4900681;29;20440;-70
2022/09/13 07:03:02;;;;;;;14.53;10.80;;;15.00;99.90;;;-142.72;100.00;65101.41;4902399;29;20445;-70
2022/09/13 07:05:31;;;;;;;12.07;10.60;;;15.10;99.90;;;-142.72;100.00;65101.41;4882568;29;20433;-71
2022/09/13 07:08:00;;;;;;;11.97;10.47;;;15.20;99.90;;;-142.72;100.00;65101.41;4893645;29;20462;-71
2022/09/13 07:10:29;;;;;;;18.83;12.23;;;15.40;99.90;;;-142.72;100.00;65101.41;4900869;29;20508;-70
2022/09/13 07:12:57;;;;;;;15.47;12.73;;;15.40;99.90;;;-142.72;100.00;65101.41;4893176;29;20430;-71
2022/09/13 07:15:26;;;;;;;12.30;10.20;;;15.40;99.90;;;-142.72;100.00;65101.41;4888633;29;20448;-71
2022/09/13 07:17:57;;;;;;;11.13;9.90;;;15.50;99.90;;;-142.72;100.00;65101.41;4894892;29;20427;-71
2022/09/13 07:20:26;;;;;;;11.83;10.63;;;15.40;99.90;;;-142.72;100.00;65101.41;4912683;29;20820;-71
2022/09/13 07:22:55;;;;;;;15.23;12.03;;;15.60;99.90;;;-142.72;100.00;65101.41;4897124;29;20470;-71
2022/09/13 07:25:24;;;;;;;11.17;9.90;;;15.80;99.90;;;-142.72;100.00;65101.41;4900335;29;20460;-70
2022/09/13 07:27:53;;;;;;;13.60;10.27;;;15.80;99.90;;;-142.72;100.00;65101.41;4909462;29;20458;-71
2022/09/13 07:30:24;;;;;;;14.40;9.90;;;15.90;99.90;;;-142.72;100.00;65101.41;4900283;29;20966;-71
2022/09/13 07:32:53;;;;;;;10.80;9.80;;;15.90;99.90;;;-142.72;100.00;65101.41;4890186;29;20501;-71
2022/09/13 07:35:24;;;;;;;9.73;8.73;;;16.00;99.90;;;-142.72;100.00;65101.41;4900605;29;20481;-70
2022/09/13 07:37:53;;;;;;;11.87;9.93;;;16.10;99.90;;;-142.72;100.00;65101.41;4894273;29;20466;-70
2022/09/13 07:40:22;;;;;;;13.00;10.70;;;16.20;99.90;;;-142.72;100.00;65101.41;4901501;29;20460;-71
2022/09/13 07:42:52;;;;;;;13.57;10.93;;;16.10;99.90;;;-142.72;100.00;65101.41;4902573;29;20470;-71
2022/09/13 07:45:22;;;;;;;13.07;10.43;;;16.10;99.90;;;-142.72;100.00;65101.41;4892166;29;20985;-71
2022/09/13 07:47:52;;;;;;;9.10;8.30;;;16.30;99.90;;;-142.72;100.00;65101.41;4896283;29;20416;-71
2022/09/13 07:50:23;;;;;;;8.17;7.37;;;16.20;99.90;;;-142.72;100.00;65101.41;4897857;29;20442;-71
2022/09/13 07:52:52;;;;;;;11.43;10.27;;;16.20;99.90;;;-142.72;100.00;65101.41;4904947;29;20452;-71
2022/09/13 07:55:21;;;;;;;11.30;10.30;;;16.30;99.90;;;-142.72;100.00;65101.41;4893579;29;20827;-71
2022/09/13 07:57:50;;;;;;;11.63;10.07;;;16.40;99.90;;;-142.72;100.00;65101.41;4894846;29;20946;-71
2022/09/13 08:00:19;;;;;;;11.10;9.00;;;16.50;99.90;;;-142.72;100.00;65101.41;4900484;29;20424;-71
2022/09/13 08:02:48;;;;;;;13.60;11.13;;;16.60;99.90;;;-142.72;100.00;65101.41;4896176;29;20533;-71
2022/09/13 08:05:18;;;;;;;12.93;10.90;;;16.80;99.90;;;-142.72;100.00;65101.41;4894290;29;20478;-71
2022/09/13 08:07:48;;;;;;;13.20;11.80;;;17.10;99.90;;;-142.72;100.00;65101.41;4899664;29;20991;-71
2022/09/13 08:10:17;;;;;;;13.40;10.40;;;17.10;99.90;;;-142.72;100.00;65101.41;4897514;29;20508;-71
2022/09/13 08:12:46;;;;;;;11.07;9.93;;;17.10;99.90;;;-142.72;100.00;65101.41;4898970;29;20481;-70
2022/09/13 08:15:15;;;;;;;9.93;8.97;;;17.10;99.90;;;-142.72;100.00;65101.41;4904212;29;20468;-72
2022/09/13 08:17:45;;;;;;;12.07;9.60;;;17.40;99.90;;;-142.72;100.00;65101.41;4911269;29;20449;-70
2022/09/13 08:20:14;;;;;;;10.30;9.40;;;17.70;99.90;;;-142.72;100.00;65101.41;4890055;29;20443;-74
2022/09/13 08:22:43;;;;;;;10.97;9.87;;;18.00;99.90;;;-142.72;100.00;65101.41;4893774;29;20449;-71
2022/09/13 08:25:13;;;;;;;13.87;9.33;;;18.00;99.90;;;-142.72;100.00;65101.41;4898685;29;20474;-72
2022/09/13 08:27:42;;;;;;;11.77;10.67;;;17.90;99.90;;;-142.72;100.00;65101.41;4889891;29;20446;-72
2022/09/13 08:30:13;;;;;;;11.17;10.17;;;18.10;99.90;;;-142.72;100.00;65101.41;4897645;29;20450;-71
2022/09/13 08:32:42;;;;;;;11.77;10.50;;;18.10;99.90;;;-142.72;100.00;65101.41;4899862;29;20423;-71
2022/09/13 08:35:11;;;;;;;13.37;11.17;;;17.90;99.90;;;-142.72;100.00;65101.41;4896000;29;20485;-71
2022/09/13 08:37:41;;;;;;;13.00;10.90;;;18.00;99.90;;;-142.72;100.00;65101.41;4895881;29;20401;-71
2022/09/13 08:40:12;;;;;;;13.50;11.73;;;18.30;99.90;;;-142.72;100.00;65101.41;4891866;29;20458;-71
2022/09/13 08:42:54;;;;;;;13.90;11.30;;;18.30;99.90;;;-142.72;100.00;65101.41;4888289;29;20452;-72
2022/09/13 08:45:23;;;;;;;11.33;9.60;;;18.30;99.90;;;-142.72;100.00;65101.41;4906792;29;20985;-72
2022/09/13 08:47:59;;;;;;;10.50;8.87;;;18.40;99.90;;;-142.72;100.00;65101.41;4898390;29;20486;-71
2022/09/13 08:50:32;;;;;;;12.30;10.10;;;18.30;99.90;;;-142.72;100.00;65101.41;4896234;29;20461;-72
2022/09/13 08:53:18;;;;;;;14.10;10.00;;;18.50;99.90;;;-142.72;100.00;65101.41;4904154;29;20450;-72
2022/09/13 08:56:03;;;;;;;8.77;7.97;;;18.80;99.90;;;-142.72;100.00;65101.41;4896435;29;20667;-70
2022/09/13 08:58:59;;;;;;;10.70;8.80;;;18.80;99.90;;;-142.72;100.00;65101.41;4894976;29;20451;-71
2022/09/13 09:01:48;;;;;;;15.67;11.90;;;19.00;99.90;;;-142.72;100.00;65101.41;4894084;29;20445;-72
2022/09/13 09:04:39;;;;;;;10.03;9.13;;;18.90;99.90;;;-142.72;100.00;65101.41;4893465;29;20482;-72
2022/09/13 09:07:17;;;;;;;12.30;10.07;;;19.00;99.90;;;-142.72;100.00;65101.41;4896819;29;20569;-72
2022/09/13 09:09:54;;;;;;;10.20;8.17;;;19.30;99.90;;;-142.72;100.00;65101.41;4893822;29;20953;-72
2022/09/13 09:12:39;;;;;;;11.20;10.00;;;19.10;99.90;;;-142.72;100.00;65101.41;4895529;29;20450;-71
2022/09/13 09:15:17;;;;;;;12.50;9.00;;;19.10;99.90;;;-142.72;100.00;65101.41;4895541;29;21103;-72
2022/09/13 09:17:57;;;;;;;9.23;8.33;;;18.90;99.90;;;-142.72;100.00;65101.41;4895844;29;20457;-72
2022/09/13 09:20:32;;;;;;;11.27;9.90;;;19.00;99.90;;;-142.72;100.00;65101.41;4896950;29;20541;-71
2022/09/13 09:23:13;;;;;;;12.90;9.73;;;19.30;99.90;;;-142.72;100.00;65101.41;4896001;29;20473;-72
2022/09/13 09:25:52;;;;;;;10.80;9.70;;;19.30;99.90;;;-142.72;100.00;65101.41;4909784;29;20470;-71
2022/09/13 09:28:23;;;;;;;10.57;8.47;;;19.40;99.90;;;-142.72;100.00;65101.41;4894219;29;20443;-71
2022/09/13 09:31:04;;;;;;;12.37;9.60;;;19.30;99.90;;;-142.72;100.00;65101.41;4912082;29;20508;-72
2022/09/13 09:33:59;;;;;;;10.40;9.17;;;19.50;99.90;;;-142.72;100.00;65101.41;4890238;29;20450;-71
2022/09/13 09:36:40;;;;;;;9.13;8.17;;;19.70;99.90;;;-142.72;100.00;65101.41;4893625;29;20835;-71
2022/09/13 09:39:15;;;;;;;13.90;8.57;;;20.20;99.90;;;-142.72;100.00;65101.41;4891154;29;20458;-72
2022/09/13 09:41:45;;;;;;;7.90;7.20;;;20.40;99.90;;;-142.72;100.00;65101.41;4902454;29;20441;-75
2022/09/13 09:44:21;;;;;;;11.60;8.73;;;20.80;98.70;;;-142.72;100.00;65101.41;4896165;29;21005;-72
2022/09/13 09:46:56;;;;;;;9.20;8.23;;;21.00;96.20;;;-142.72;100.00;65101.41;4887717;29;20876;-74
2022/09/13 09:52:28;;;;;;;8.47;7.57;;;21.10;95.00;;;-142.72;100.00;65101.41;4894187;29;20458;-74
2022/09/13 09:55:12;;;;;;;9.43;8.03;;;21.30;95.70;;;-142.72;100.00;65101.41;4898275;29;20525;-73
2022/09/13 09:57:58;;;;;;;10.03;6.77;;;21.40;87.70;;;-142.72;100.00;65101.41;4891807;29;20452;-75
2022/09/13 10:00:34;;;;;;;10.33;6.20;;;21.00;90.80;;;-142.72;100.00;65101.41;4896235;29;20482;-74
2022/09/13 10:03:07;;;;;;;12.47;8.03;;;20.60;92.90;;;-142.72;100.00;65101.41;4902366;29;20482;-73
2022/09/13 10:05:37;;;;;;;12.37;10.73;;;20.80;95.60;;;-142.72;100.00;65101.41;4894559;29;21024;-72
2022/09/13 10:08:25;;;;;;;9.50;8.00;;;21.00;94.30;;;-142.72;100.00;65101.41;4896366;29;20442;-74
2022/09/13 10:10:58;;;;;;;12.27;8.10;;;21.10;93.30;;;-142.72;100.00;65101.41;4894164;29;20448;-77
2022/09/13 10:13:29;;;;;;;8.10;7.10;;;21.10;92.50;;;-142.72;100.00;65101.41;4896137;29;20446;-73
2022/09/13 10:16:04;;;;;;;8.50;7.13;;;21.20;91.90;;;-142.72;100.00;65101.41;4894604;29;20442;-72
2022/09/13 10:18:37;;;;;;;9.10;7.90;;;21.40;90.80;;;-142.72;100.00;65101.41;4897068;29;20469;-73
2022/09/13 10:21:27;;;;;;;7.83;6.53;;;21.80;84.10;;;-142.72;100.00;65101.41;4894776;29;20832;-73
2022/09/13 10:24:18;;;;;;;10.37;7.60;;;21.90;77.30;;;-142.72;100.00;65101.41;4888813;29;20482;-73
2022/09/13 10:26:47;;;;;;;8.33;7.47;;;22.00;76.60;;;-142.72;100.00;65101.41;4898140;29;20550;-74
2022/09/13 10:29:18;;;;;;;7.33;6.60;;;22.10;71.90;;;-142.72;100.00;65101.41;4895781;29;20654;-75